createdAt,value
2022-11-01T00:02:09.792Z,101868.97
2022-11-01T00:04:37.707Z,101870.04
2022-11-01T00:07:05.965Z,101870.64
2022-11-01T00:09:33.224Z,101871.21
2022-11-01T00:12:00.487Z,101869.89
2022-11-01T00:14:27.740Z,101867.93
2022-11-01T00:16:54.988Z,101862.41
2022-11-01T00:19:22.468Z,101860.86
2022-11-01T00:21:50.110Z,101860.64
2022-11-01T00:24:17.374Z,101856.84
2022-11-01T00:26:44.764Z,101861.39
2022-11-01T00:29:13.223Z,101856.87
2022-11-01T00:31:42.705Z,101850.02
2022-11-01T00:34:09.975Z,101851.27
2022-11-01T00:36:37.203Z,101848.48
2022-11-01T00:39:06.903Z,101855.17
2022-11-01T00:41:35.148Z,101851.55
2022-11-01T00:44:02.549Z,101852.06
2022-11-01T00:46:30.792Z,101848.45
2022-11-01T00:48:58.809Z,101850.88
2022-11-01T00:51:26.984Z,101851.05
2022-11-01T00:53:54.236Z,101850.95
2022-11-01T00:56:21.538Z,101848.55
2022-11-01T00:58:48.689Z,101847.55
2022-11-01T01:01:16.109Z,101851.17
2022-11-01T01:03:43.568Z,101847.36
2022-11-01T01:06:10.793Z,101846.95
2022-11-01T01:08:38.168Z,101850.48
2022-11-01T01:11:05.411Z,101845.77
2022-11-01T01:13:32.662Z,101844.98
2022-11-01T01:16:00.030Z,101839.77
2022-11-01T01:18:27.366Z,101840.33
2022-11-01T01:21:05.431Z,101840.84
2022-11-01T01:23:33.040Z,101835.46
2022-11-01T01:26:04.392Z,101834.02
2022-11-01T01:28:31.579Z,101835.21
2022-11-01T01:30:58.793Z,101830.44
2022-11-01T01:33:26.045Z,101828.52
2022-11-01T01:35:53.313Z,101828.71
2022-11-01T01:38:20.655Z,101828.30
2022-11-01T01:40:47.921Z,101823.84
2022-11-01T01:43:15.163Z,101826.24
2022-11-01T01:45:42.949Z,101826.70
2022-11-01T01:48:26.256Z,101826.61
2022-11-01T01:50:59.454Z,101829.13
2022-11-01T01:53:32.938Z,101828.16
2022-11-01T01:56:09.462Z,101828.77
2022-11-01T01:58:43.557Z,101829.73
2022-11-01T02:01:11.670Z,101832.73
2022-11-01T02:03:41.108Z,101833.19
2022-11-01T02:06:15.674Z,101833.31
2022-11-01T02:09:04.280Z,101832.31
2022-11-01T02:11:31.544Z,101832.73
2022-11-01T02:13:58.890Z,101833.60
2022-11-01T02:16:57.691Z,101834.31
2022-11-01T02:20:01.623Z,101836.34
2022-11-01T02:22:37.593Z,101837.00
2022-11-01T02:25:23.444Z,101836.70
2022-11-01T02:28:22.264Z,101839.40
2022-11-01T02:31:30.654Z,101839.62
2022-11-01T02:34:04.273Z,101842.02
2022-11-01T02:37:04.480Z,101841.73
2022-11-01T02:39:40.374Z,101840.05
2022-11-01T02:42:42.498Z,101844.45
2022-11-01T02:45:35.578Z,101844.80
2022-11-01T02:48:05.204Z,101850.14
2022-11-01T02:50:57.127Z,101850.38
2022-11-01T02:53:24.407Z,101854.55
2022-11-01T02:55:53.265Z,101853.92
2022-11-01T02:58:24.873Z,101855.47
2022-11-01T03:00:52.538Z,101861.00
2022-11-01T03:03:35.514Z,101866.54
2022-11-01T03:06:17.602Z,101866.13
2022-11-01T03:08:54.064Z,101868.46
2022-11-01T03:11:54.190Z,101868.90
2022-11-01T03:14:44.586Z,101863.43
2022-11-01T03:17:51.081Z,101862.66
2022-11-01T03:20:27.837Z,101861.72
2022-11-01T03:23:00.900Z,101862.59
2022-11-01T03:25:39.236Z,101861.46
2022-11-01T03:28:13.243Z,101859.73
2022-11-01T03:30:44.934Z,101864.86
2022-11-01T03:33:14.836Z,101863.00
2022-11-01T03:35:48.251Z,101872.45
2022-11-01T03:38:24.182Z,101872.98
2022-11-01T03:41:01.018Z,101870.22
2022-11-01T03:43:31.247Z,101870.85
2022-11-01T03:45:58.509Z,101871.11
2022-11-01T03:48:26.017Z,101872.16
2022-11-01T03:50:57.539Z,101872.46
2022-11-01T03:53:25.414Z,101873.63
2022-11-01T03:55:52.553Z,101872.69
2022-11-01T03:58:19.925Z,101871.41
2022-11-01T04:00:47.253Z,101876.02
2022-11-01T04:03:14.655Z,101871.85
2022-11-01T04:05:42.704Z,101876.40
2022-11-01T04:08:11.878Z,101872.16
2022-11-01T04:10:39.158Z,101870.46
2022-11-01T04:13:06.687Z,101870.19
2022-11-01T04:15:52.244Z,101865.95
2022-11-01T04:21:23.251Z,101861.92
2022-11-01T04:23:50.921Z,101863.16
2022-11-01T04:26:21.881Z,101861.69
2022-11-01T04:28:59.253Z,101859.00
2022-11-01T04:31:30.283Z,101859.05
2022-11-01T04:33:59.587Z,101855.91
2022-11-01T04:36:27.492Z,101859.29
2022-11-01T04:38:56.993Z,101857.41
2022-11-01T04:41:26.993Z,101858.31
2022-11-01T04:43:57.726Z,101858.52
2022-11-01T04:46:27.518Z,101860.13
2022-11-01T04:48:54.707Z,101858.97
2022-11-01T04:51:21.945Z,101856.95
2022-11-01T04:53:49.192Z,101856.98
2022-11-01T04:56:16.543Z,101858.02
2022-11-01T04:58:46.435Z,101858.85
2022-11-01T05:01:14.645Z,101857.31
2022-11-01T05:03:43.148Z,101858.35
2022-11-01T05:06:10.916Z,101858.77
2022-11-01T05:08:38.448Z,101856.20
2022-11-01T05:11:06.210Z,101860.14
2022-11-01T05:13:33.466Z,101857.92
2022-11-01T05:16:21.179Z,101859.97
2022-11-01T05:18:49.164Z,101857.85
2022-11-01T05:21:17.046Z,101851.03
2022-11-01T05:23:48.112Z,101853.98
2022-11-01T05:26:15.332Z,101858.05
2022-11-01T05:28:42.516Z,101857.22
2022-11-01T05:31:09.841Z,101860.40
2022-11-01T05:33:37.027Z,101858.65
2022-11-01T05:36:04.742Z,101859.73
2022-11-01T05:38:32.314Z,101855.35
2022-11-01T05:41:03.310Z,101852.61
2022-11-01T05:43:30.712Z,101853.86
2022-11-01T05:45:57.959Z,101855.99
2022-11-01T05:48:25.107Z,101857.90
2022-11-01T05:50:52.258Z,101860.30
2022-11-01T05:53:19.450Z,101861.98
2022-11-01T05:55:46.973Z,101863.59
2022-11-01T05:58:14.659Z,101865.16
2022-11-01T06:00:42.531Z,101864.30
2022-11-01T06:03:10.105Z,101867.58
2022-11-01T06:05:39.058Z,101867.89
2022-11-01T06:08:06.725Z,101866.98
2022-11-01T06:10:34.080Z,101861.60
2022-11-01T06:13:02.053Z,101863.36
2022-11-01T06:15:32.177Z,101861.60
2022-11-01T06:18:02.201Z,101859.20
2022-11-01T06:20:31.825Z,101863.02
2022-11-01T06:22:59.979Z,101864.49
2022-11-01T06:25:28.070Z,101860.66
2022-11-01T06:27:55.511Z,101862.30
2022-11-01T06:30:22.777Z,101862.78
2022-11-01T06:32:50.302Z,101862.17
2022-11-01T06:35:17.870Z,101859.77
2022-11-01T06:37:45.127Z,101855.50
2022-11-01T06:40:12.894Z,101856.13
2022-11-01T06:42:45.445Z,101853.19
2022-11-01T06:45:14.262Z,101854.30
2022-11-01T06:47:47.135Z,101850.92
2022-11-01T06:50:14.432Z,101847.30
2022-11-01T06:52:41.640Z,101851.37
2022-11-01T06:55:09.477Z,101849.44
2022-11-01T06:57:37.074Z,101848.27
2022-11-01T07:00:05.841Z,101851.17
2022-11-01T07:02:33.341Z,101846.66
2022-11-01T07:05:00.784Z,101843.64
2022-11-01T07:07:28.238Z,101843.35
2022-11-01T07:09:55.384Z,101841.81
2022-11-01T07:12:22.642Z,101840.76
2022-11-01T07:14:49.899Z,101838.74
2022-11-01T07:17:17.258Z,101839.25
2022-11-01T07:19:45.148Z,101837.80
2022-11-01T07:22:13.897Z,101833.73
2022-11-01T07:24:41.055Z,101835.98
2022-11-01T07:27:08.832Z,101837.70
2022-11-01T07:29:36.082Z,101837.50
2022-11-01T07:32:03.632Z,101831.31
2022-11-01T07:34:31.110Z,101825.95
2022-11-01T07:36:58.347Z,101825.09
2022-11-01T07:39:25.819Z,101827.25
2022-11-01T07:41:54.083Z,101823.95
2022-11-01T07:44:21.963Z,101823.83
2022-11-01T07:46:49.305Z,101821.52
2022-11-01T07:49:16.560Z,101819.85
2022-11-01T07:51:44.435Z,101816.77
2022-11-01T07:54:11.635Z,101813.87
2022-11-01T07:56:38.827Z,101811.39
2022-11-01T07:59:05.976Z,101807.69
2022-11-01T08:01:33.260Z,101809.00
2022-11-01T08:04:00.686Z,101805.10
2022-11-01T08:06:27.954Z,101805.67
2022-11-01T08:08:55.152Z,101802.52
2022-11-01T08:11:22.566Z,101802.02
2022-11-01T08:13:49.807Z,101799.64
2022-11-01T08:16:17.784Z,101793.36
2022-11-01T08:18:45.126Z,101789.83
2022-11-01T08:21:18.124Z,101786.35
2022-11-01T08:23:46.188Z,101788.08
2022-11-01T08:26:15.084Z,101784.94
2022-11-01T08:28:42.671Z,101782.58
2022-11-01T08:31:10.622Z,101783.92
2022-11-01T08:33:37.974Z,101789.02
2022-11-01T08:36:05.985Z,101791.41
2022-11-01T08:38:33.227Z,101791.13
2022-11-01T08:41:00.442Z,101790.20
2022-11-01T08:43:27.727Z,101790.25
2022-11-01T08:45:54.955Z,101791.17
2022-11-01T08:48:22.228Z,101793.91
2022-11-01T08:50:49.563Z,101790.64
2022-11-01T08:53:16.939Z,101789.15
2022-11-01T08:55:44.199Z,101789.05
2022-11-01T08:58:12.038Z,101784.31
2022-11-01T09:00:39.302Z,101779.02
2022-11-01T09:03:06.754Z,101781.14
2022-11-01T09:05:34.828Z,101780.73
2022-11-01T09:08:02.604Z,101778.34
2022-11-01T09:10:30.803Z,101773.79
2022-11-01T09:13:00.238Z,101766.59
2022-11-01T09:15:27.933Z,101765.35
2022-11-01T09:17:55.183Z,101762.25
2022-11-01T09:20:23.710Z,101758.83
2022-11-01T09:22:54.293Z,101759.27
2022-11-01T09:25:21.554Z,101755.59
2022-11-01T09:27:48.803Z,101748.42
2022-11-01T09:30:16.152Z,101738.15
2022-11-01T09:32:43.409Z,101737.48
2022-11-01T09:35:10.672Z,101737.16
2022-11-01T09:37:37.920Z,101732.30
2022-11-01T09:40:06.757Z,101727.40
2022-11-01T09:42:41.630Z,101725.05
2022-11-01T09:45:30.507Z,101719.42
2022-11-01T09:47:59.678Z,101717.28
2022-11-01T09:50:34.436Z,101713.47
2022-11-01T09:53:07.926Z,101709.77
2022-11-01T09:56:05.074Z,101705.63
2022-11-01T09:58:50.457Z,101705.02
2022-11-01T10:02:09.665Z,101701.09
2022-11-01T10:05:26.273Z,101696.35
2022-11-01T10:08:17.473Z,101698.14
2022-11-01T10:11:08.784Z,101695.14
2022-11-01T10:14:37.467Z,101689.37
2022-11-01T10:17:18.468Z,101693.98
2022-11-01T10:19:50.505Z,101688.98
2022-11-01T10:22:29.633Z,101678.69
2022-11-01T10:25:03.855Z,101675.11
2022-11-01T10:28:15.644Z,101667.98
2022-11-01T10:31:05.221Z,101658.66
2022-11-01T10:33:41.194Z,101653.73
2022-11-01T10:36:25.711Z,101651.28
2022-11-01T10:42:15.550Z,101632.66
2022-11-01T10:44:54.057Z,101628.77
2022-11-01T10:47:24.490Z,101625.23
2022-11-01T10:50:05.885Z,101624.11
2022-11-01T10:53:05.439Z,101629.10
2022-11-01T10:55:48.922Z,101625.81
2022-11-01T10:58:43.427Z,101613.90
2022-11-01T11:01:18.141Z,101605.11
2022-11-01T11:03:47.842Z,101598.52
2022-11-01T11:06:16.105Z,101595.90
2022-11-01T11:08:49.059Z,101594.84
2022-11-01T11:11:18.313Z,101586.14
2022-11-01T11:13:53.720Z,101581.14
2022-11-01T11:16:31.262Z,101579.60
2022-11-01T11:19:08.038Z,101577.96
2022-11-01T11:21:35.496Z,101576.85
2022-11-01T11:24:03.447Z,101580.23
2022-11-01T11:26:40.035Z,101575.92
2022-11-01T11:29:07.558Z,101574.90
2022-11-01T11:31:34.894Z,101568.59
2022-11-01T11:34:28.835Z,101560.92
2022-11-01T11:36:57.151Z,101555.85
2022-11-01T11:39:31.425Z,101549.16
2022-11-01T11:42:23.870Z,101543.90
2022-11-01T11:45:06.877Z,101537.98
2022-11-01T11:47:37.287Z,101538.21
2022-11-01T11:50:20.132Z,101537.27
2022-11-01T11:52:51.286Z,101535.32
2022-11-01T11:56:02.053Z,101532.27
2022-11-01T11:58:48.017Z,101529.66
2022-11-01T12:01:23.231Z,101527.08
2022-11-01T12:04:18.795Z,101523.30
2022-11-01T12:06:46.661Z,101524.83
2022-11-01T12:09:40.956Z,101525.62
2022-11-01T12:12:34.642Z,101525.56
2022-11-01T12:15:03.546Z,101515.87
2022-11-01T12:17:44.077Z,101510.85
2022-11-01T12:20:20.133Z,101509.30
2022-11-01T12:23:00.494Z,101506.46
2022-11-01T12:25:28.574Z,101505.00
2022-11-01T12:28:35.554Z,101505.52
2022-11-01T12:31:21.574Z,101503.80
2022-11-01T12:34:18.195Z,101504.33
2022-11-01T12:36:58.661Z,101508.61
2022-11-01T12:39:53.252Z,101505.84
2022-11-01T12:42:39.443Z,101502.77
2022-11-01T12:45:22.074Z,101500.21
2022-11-01T12:48:16.052Z,101496.16
2022-11-01T12:51:16.974Z,101496.23
2022-11-01T12:54:00.121Z,101499.71
2022-11-01T12:56:27.373Z,101501.51
2022-11-01T12:58:56.407Z,101501.33
2022-11-01T13:01:44.574Z,101501.24
2022-11-01T13:04:31.500Z,101495.29
2022-11-01T13:07:19.872Z,101494.01
2022-11-01T13:10:29.768Z,101489.96
2022-11-01T13:13:46.336Z,101478.67
2022-11-01T13:16:38.766Z,101473.23
2022-11-01T13:19:45.441Z,101468.80
2022-11-01T13:22:38.188Z,101463.55
2022-11-01T13:25:52.698Z,101461.35
2022-11-01T13:28:53.798Z,101453.46
2022-11-01T13:32:01.524Z,101453.95
2022-11-01T13:34:37.779Z,101447.86
2022-11-01T13:37:16.124Z,101443.50
2022-11-01T13:40:01.558Z,101439.87
2022-11-01T13:43:04.631Z,101438.36
2022-11-01T13:45:58.333Z,101434.84
2022-11-01T13:48:58.961Z,101431.20
2022-11-01T13:51:57.649Z,101425.20
2022-11-01T13:54:37.544Z,101422.05
2022-11-01T13:57:10.383Z,101411.85
2022-11-01T13:59:37.539Z,101405.77
2022-11-01T14:02:23.362Z,101395.41
2022-11-01T14:05:10.418Z,101386.85
2022-11-01T14:07:43.641Z,101385.25
2022-11-01T14:10:16.937Z,101384.61
2022-11-01T14:13:05.378Z,101385.91
2022-11-01T14:15:38.799Z,101385.13
2022-11-01T14:18:11.157Z,101388.36
2022-11-01T14:20:38.411Z,101387.89
2022-11-01T14:23:27.388Z,101382.96
2022-11-01T14:26:25.339Z,101380.81
2022-11-01T14:28:58.845Z,101379.13
2022-11-01T14:31:31.515Z,101377.13
2022-11-01T14:34:01.740Z,101375.60
2022-11-01T14:36:34.237Z,101373.58
2022-11-01T14:39:44.282Z,101372.55
2022-11-01T14:42:19.264Z,101367.36
2022-11-01T14:44:50.949Z,101372.11
2022-11-01T14:47:37.579Z,101367.34
2022-11-01T14:50:31.071Z,101364.80
2022-11-01T14:53:09.497Z,101362.41
2022-11-01T14:55:38.124Z,101363.46
2022-11-01T14:58:30.810Z,101360.50
2022-11-01T15:01:06.476Z,101357.48
2022-11-01T15:03:34.125Z,101354.12
2022-11-01T15:06:01.470Z,101353.85
2022-11-01T15:08:40.852Z,101351.14
2022-11-01T15:11:08.760Z,101354.68
2022-11-01T15:13:40.630Z,101356.08
2022-11-01T15:16:23.550Z,101360.28
2022-11-01T15:18:58.821Z,101358.31
2022-11-01T15:21:30.672Z,101360.05
2022-11-01T15:23:59.799Z,101354.34
2022-11-01T15:26:31.766Z,101354.24
2022-11-01T15:29:03.968Z,101352.16
2022-11-01T15:31:33.812Z,101353.71
2022-11-01T15:34:01.263Z,101354.75
2022-11-01T15:36:33.091Z,101355.29
2022-11-01T15:39:03.822Z,101356.09
2022-11-01T15:41:34.395Z,101357.21
2022-11-01T15:44:07.989Z,101352.27
2022-11-01T15:46:42.939Z,101350.20
2022-11-01T15:50:06.160Z,101346.36
2022-11-01T15:52:46.334Z,101347.91
2022-11-01T15:55:29.059Z,101348.77
2022-11-01T15:58:08.599Z,101347.07
2022-11-01T16:00:44.575Z,101343.53
2022-11-01T16:03:27.263Z,101342.13
2022-11-01T16:06:00.013Z,101351.92
2022-11-01T16:08:47.103Z,101352.55
2022-11-01T16:11:22.004Z,101353.13
2022-11-01T16:14:07.882Z,101349.12
2022-11-01T16:19:45.416Z,101343.55
2022-11-01T16:22:46.045Z,101350.30
2022-11-01T16:25:24.177Z,101351.90
2022-11-01T16:28:07.556Z,101352.77
2022-11-01T16:30:56.565Z,101356.45
2022-11-01T16:33:51.590Z,101355.13
2022-11-01T16:36:20.285Z,101354.28
2022-11-01T16:38:54.107Z,101357.80
2022-11-01T16:41:33.975Z,101353.59
2022-11-01T16:44:18.968Z,101345.17
2022-11-01T16:46:48.058Z,101343.38
2022-11-01T16:49:26.888Z,101341.09
2022-11-01T16:51:58.954Z,101340.80
2022-11-01T16:54:28.672Z,101334.96
2022-11-01T16:56:58.794Z,101336.24
2022-11-01T16:59:34.436Z,101337.91
2022-11-01T17:02:29.938Z,101336.92
2022-11-01T17:05:21.463Z,101331.22
2022-11-01T17:07:50.173Z,101329.77
2022-11-01T17:10:23.382Z,101327.94
2022-11-01T17:12:54.138Z,101329.23
2022-11-01T17:15:23.058Z,101323.14
2022-11-01T17:17:51.767Z,101320.36
2022-11-01T17:20:27.290Z,101319.48
2022-11-01T17:22:57.886Z,101319.83
2022-11-01T17:25:30.760Z,101319.44
2022-11-01T17:27:59.348Z,101322.36
2022-11-01T17:30:28.199Z,101316.73
2022-11-01T17:32:56.926Z,101311.44
2022-11-01T17:35:26.817Z,101307.52
2022-11-01T17:37:56.575Z,101310.64
2022-11-01T17:40:25.992Z,101306.41
2022-11-01T17:42:55.745Z,101303.64
2022-11-01T17:45:39.880Z,101303.98
2022-11-01T17:48:08.873Z,101302.52
2022-11-01T17:50:38.380Z,101302.80
2022-11-01T17:53:09.220Z,101302.65
2022-11-01T17:55:39.308Z,101296.85
2022-11-01T17:58:10.035Z,101290.84
2022-11-01T18:00:42.984Z,101285.95
2022-11-01T18:03:15.120Z,101283.02
2022-11-01T18:05:45.965Z,101285.77
2022-11-01T18:08:25.203Z,101285.46
2022-11-01T18:11:14.357Z,101281.98
2022-11-01T18:14:02.661Z,101277.73
2022-11-01T18:17:14.512Z,101265.59
2022-11-01T18:20:09.645Z,101275.70
2022-11-01T18:23:05.405Z,101271.43
2022-11-01T18:26:03.625Z,101269.94
2022-11-01T18:28:35.283Z,101269.17
2022-11-01T18:31:31.988Z,101267.56
2022-11-01T18:34:40.656Z,101263.26
2022-11-01T18:37:15.406Z,101262.70
2022-11-01T18:39:56.253Z,101261.34
2022-11-01T18:42:25.947Z,101267.83
2022-11-01T18:44:59.703Z,101267.94
2022-11-01T18:47:35.102Z,101268.45
2022-11-01T18:50:16.944Z,101270.17
2022-11-01T18:52:46.225Z,101267.05
2022-11-01T18:55:15.130Z,101266.80
2022-11-01T18:57:43.792Z,101265.53
2022-11-01T19:00:14.490Z,101270.56
2022-11-01T19:02:43.121Z,101268.31
2022-11-01T19:05:18.098Z,101269.77
2022-11-01T19:08:10.949Z,101266.48
2022-11-01T19:10:42.468Z,101265.55
2022-11-01T19:13:23.109Z,101257.86
2022-11-01T19:15:54.461Z,101257.23
2022-11-01T19:18:23.965Z,101258.02
2022-11-01T19:20:56.631Z,101260.10
2022-11-01T19:23:43.150Z,101257.16
2022-11-01T19:26:23.904Z,101257.79
2022-11-01T19:28:53.196Z,101255.08
2022-11-01T19:31:29.628Z,101256.85
2022-11-01T19:34:03.294Z,101252.52
2022-11-01T19:36:40.665Z,101253.55
2022-11-01T19:39:27.152Z,101253.42
2022-11-01T19:42:12.516Z,101252.14
2022-11-01T19:44:41.359Z,101248.09
2022-11-01T19:47:36.159Z,101247.07
2022-11-01T19:50:51.330Z,101247.45
2022-11-01T19:53:29.686Z,101236.54
2022-11-01T19:56:12.843Z,101240.98
2022-11-01T19:58:45.757Z,101242.65
2022-11-01T20:01:17.655Z,101247.16
2022-11-01T20:04:27.638Z,101243.77
2022-11-01T20:07:14.214Z,101237.98
2022-11-01T20:09:43.572Z,101232.80
2022-11-01T20:12:12.578Z,101230.95
2022-11-01T20:14:41.175Z,101224.65
2022-11-01T20:17:09.862Z,101225.19
2022-11-01T20:19:38.426Z,101225.17
2022-11-01T20:22:07.145Z,101219.63
2022-11-01T20:24:36.006Z,101214.59
2022-11-01T20:27:04.598Z,101216.93
2022-11-01T20:29:33.182Z,101220.00
2022-11-01T20:32:01.648Z,101221.92
2022-11-01T20:34:30.186Z,101211.84
2022-11-01T20:39:47.368Z,101217.38
2022-11-01T20:42:15.967Z,101216.17
2022-11-01T20:44:44.661Z,101208.70
2022-11-01T20:47:13.744Z,101204.15
2022-11-01T20:49:42.351Z,101199.20
2022-11-01T20:52:38.036Z,101205.90
2022-11-01T20:54:59.678Z,101206.71
2022-11-01T20:57:28.746Z,101203.89
2022-11-01T20:59:57.604Z,101203.50
2022-11-01T21:02:27.468Z,101197.34
2022-11-01T21:05:14.999Z,101195.46
2022-11-01T21:07:47.747Z,101196.23
2022-11-01T21:10:31.728Z,101196.23
2022-11-01T21:13:21.403Z,101193.29
2022-11-01T21:15:52.587Z,101190.58
2022-11-01T21:18:26.454Z,101187.70
2022-11-01T21:20:55.354Z,101170.52
2022-11-01T21:23:37.450Z,101177.14
2022-11-01T21:26:36.219Z,101174.51
2022-11-01T21:29:30.017Z,101172.73
2022-11-01T21:31:58.596Z,101175.00
2022-11-01T21:34:31.806Z,101169.35
2022-11-01T21:37:01.113Z,101167.75
2022-11-01T21:39:33.173Z,101165.23
2022-11-01T21:42:22.782Z,101164.31
2022-11-01T21:44:52.341Z,101166.91
2022-11-01T21:47:33.103Z,101164.34
2022-11-01T21:50:01.705Z,101157.61
2022-11-01T21:52:30.342Z,101161.23
2022-11-01T21:54:58.931Z,101158.79
2022-11-01T21:57:27.564Z,101154.84
2022-11-01T21:59:56.248Z,101157.31
2022-11-01T22:02:24.858Z,101152.89
2022-11-01T22:04:55.567Z,101153.15
2022-11-01T22:07:24.254Z,101150.67
2022-11-01T22:09:52.838Z,101146.42
2022-11-01T22:12:21.483Z,101146.68
2022-11-01T22:14:50.104Z,101148.21
2022-11-01T22:17:18.797Z,101142.36
2022-11-01T22:19:47.372Z,101150.30
2022-11-01T22:22:15.995Z,101148.80
2022-11-01T22:24:44.651Z,101148.85
2022-11-01T22:27:13.338Z,101148.21
2022-11-01T22:29:42.538Z,101148.89
2022-11-01T22:32:11.331Z,101147.86
2022-11-01T22:34:39.910Z,101148.08
2022-11-01T22:37:13.336Z,101146.56
2022-11-01T22:39:42.606Z,101143.90
2022-11-01T22:42:16.329Z,101147.79
2022-11-01T22:44:47.469Z,101141.97
2022-11-01T22:47:29.096Z,101142.59
2022-11-01T22:50:03.155Z,101145.96
2022-11-01T22:52:38.751Z,101150.35
2022-11-01T22:55:13.236Z,101147.22
2022-11-01T22:58:05.818Z,101144.27
2022-11-01T23:00:37.492Z,101137.17
2022-11-01T23:03:26.400Z,101139.04
2022-11-01T23:06:00.251Z,101137.25
2022-11-01T23:08:38.924Z,101137.62
2022-11-01T23:12:14.983Z,101133.34
2022-11-01T23:14:45.834Z,101133.04
2022-11-01T23:17:14.439Z,101130.88
2022-11-01T23:19:43.091Z,101131.90
2022-11-01T23:22:19.246Z,101133.33
2022-11-01T23:24:54.697Z,101138.60
2022-11-01T23:27:29.571Z,101141.81
2022-11-01T23:30:01.698Z,101137.48
2022-11-01T23:32:31.430Z,101140.29
2022-11-01T23:35:17.915Z,101140.49
2022-11-01T23:37:46.997Z,101143.20
2022-11-01T23:40:19.502Z,101144.34
2022-11-01T23:42:51.374Z,101144.86
2022-11-01T23:45:34.158Z,101148.20
2022-11-01T23:48:02.899Z,101150.13
2022-11-01T23:50:35.829Z,101148.08
2022-11-01T23:53:14.011Z,101150.04
2022-11-01T23:55:53.711Z,101146.92
2022-11-01T23:58:32.871Z,101149.10
